首页
METAR-TAF:

METAR-TAF

机场 :

Oshawa Executive Airport

奧沙華, 安大略省, 加拿大

纬度: 43-55-22N, 经度: 78-53-48W, 海拔: 140米

当前天气观测

该预报发布于1小时和6分钟前的04:00 UTC
静风
温度 -4°C
湿度 93%
气压 1013 hPa
能見度: 14.5公里
多云层高于10000英尺

METAR: CYOO 190400Z AUTO 00000KT 9SM BKN100 M04/M05 A2992 RMK SLP138

时间: 00:06 (05:06 UTC)

预报

该预报发布于3小时和28分钟前的01:38 UTC
预报有效从19日的 02点(UTC)到 19日的 14点(UTC)
风速5节,风向北转西北
能見度: 10公里
多云层高于2500英尺
阴天层高于6000英尺
短暂存在
从 19日的 02点(UTC)到 19日的 08点(UTC)
能見度: 6.4公里
阴天层高于2000英尺
小阵雪
从 19日的 0800点(UTC)
风速3节,风向多变
能見度: 9.7公里
多云层高于2500英尺
阴天层高于4000英尺
小阵雪
几率 30%
从 19日的 08点(UTC)到 19日的 14点(UTC)
阴天层高于2000英尺
小阵雪

TAF: CYOO 190138Z 1902/1914 33005KT P6SM BKN025 OVC060 TEMPO 1902/1908 4SM -SHSN OVC020 FM190800 VRB03KT 6SM -SHSN BKN025 OVC040 PROB30 1908/1914 11/2SM -SHSN OVC020 RMK FCST BASED ON AUTO OBS. NXT FCST BY 190800Z

超过4000个机场的气象观测和天气预报(METAR&TAF报告)。

可查询的气象台以黄色和红色小点在地图上表示。

将鼠标移到小点上方,可查看气象台名称。

然后点击查看天气观测和预报。

如需切换地图:点击带黑十字的绿色按钮放大地图;点击带横线的绿色按钮缩小地图;或者点击绿色箭头查看邻近地区的地图。


METAR-TAF: